Time;durP1;ratioP1;P1;durP2;ratioP2;P2;SDS_P1;SDS_P2;PMS_P1;PMS_P2;Temp;Humidity;BMP_temperature;BMP_pressure;BME280_temperature;BME280_humidity;BME280_pressure;Samples;Min_cycle;Max_cycle;Signal;HPM_P1;HPM_P2
2021/06/19 00:01:26;;;;;;;6.40;2.00;;;24.40;77.80;;;;;;5034942;28;20091;-84
2021/06/19 00:03:51;;;;;;;5.65;1.80;;;24.30;77.90;;;;;;5018467;28;20116;-85
2021/06/19 00:06:17;;;;;;;6.13;1.50;;;24.20;78.70;;;;;;5034303;28;20088;-84
2021/06/19 00:08:42;;;;;;;8.05;1.92;;;24.20;78.40;;;;;;5034829;28;20056;-84
2021/06/19 00:11:08;;;;;;;5.82;1.85;;;24.20;79.30;;;;;;5040350;28;20013;-83
2021/06/19 00:13:34;;;;;;;6.22;1.83;;;24.10;79.30;;;;;;5047390;28;20029;-84
2021/06/19 00:15:59;;;;;;;10.07;1.95;;;24.10;79.70;;;;;;5016335;28;20122;-83
2021/06/19 00:18:25;;;;;;;7.85;1.70;;;24.00;80.30;;;;;;5031932;28;20630;-83
2021/06/19 00:20:51;;;;;;;8.70;1.92;;;24.00;80.90;;;;;;5014704;28;20021;-83
2021/06/19 00:23:17;;;;;;;4.50;1.70;;;23.90;81.20;;;;;;5032569;28;20047;-82
2021/06/19 00:25:43;;;;;;;5.78;1.90;;;23.80;81.70;;;;;;5030352;28;20124;-82
2021/06/19 00:28:08;;;;;;;8.55;1.95;;;23.70;83.10;;;;;;5031457;28;20075;-83
2021/06/19 00:30:34;;;;;;;12.85;2.60;;;23.60;84.10;;;;;;5030896;28;20041;-82
2021/06/19 00:32:59;;;;;;;6.40;2.25;;;23.50;86.40;;;;;;5031648;28;20060;-83
2021/06/19 00:35:25;;;;;;;9.30;2.40;;;23.50;87.00;;;;;;5031528;28;20033;-83
2021/06/19 00:37:51;;;;;;;12.57;3.50;;;23.40;86.60;;;;;;5033562;28;20509;-83
2021/06/19 00:40:19;;;;;;;7.63;2.60;;;23.30;86.40;;;;;;5016830;28;20049;-83
2021/06/19 00:43:04;;;;;;;12.13;2.65;;;23.30;85.90;;;;;;5017692;28;20033;-84
2021/06/19 00:45:33;;;;;;;10.02;2.35;;;23.40;85.00;;;;;;5033084;28;20110;-82
2021/06/19 00:47:59;;;;;;;7.15;2.03;;;23.50;83.70;;;;;;5014198;28;20032;-82
2021/06/19 00:50:27;;;;;;;5.32;1.70;;;23.50;82.90;;;;;;5032089;28;20029;-83
2021/06/19 00:52:53;;;;;;;9.13;1.45;;;23.60;81.50;;;;;;5029645;28;20029;-82
2021/06/19 00:55:19;;;;;;;5.55;1.00;;;23.60;81.30;;;;;;5030930;28;20025;-84
2021/06/19 00:57:45;;;;;;;3.53;1.17;;;23.60;82.40;;;;;;5013913;28;20059;-83
2021/06/19 01:00:12;;;;;;;3.38;1.00;;;23.60;83.00;;;;;;5031725;28;20399;-83
2021/06/19 01:02:39;;;;;;;3.97;1.05;;;23.50;82.90;;;;;;5012886;28;20033;-83
2021/06/19 01:05:08;;;;;;;5.72;1.20;;;23.50;83.00;;;;;;5031162;28;20029;-83
2021/06/19 01:07:33;;;;;;;3.85;0.95;;;23.50;82.50;;;;;;5044754;28;20545;-83
2021/06/19 01:09:59;;;;;;;5.75;1.30;;;23.60;83.30;;;;;;5041831;28;20033;-84
2021/06/19 01:12:26;;;;;;;5.75;1.42;;;23.50;84.70;;;;;;5045946;28;20496;-85
2021/06/19 01:14:55;;;;;;;5.50;1.38;;;23.50;85.80;;;;;;5022556;28;20441;-83
2021/06/19 01:17:22;;;;;;;8.23;1.95;;;23.50;85.60;;;;;;5013717;28;20033;-83
2021/06/19 01:20:08;;;;;;;6.88;1.65;;;23.50;85.60;;;;;;5013146;28;20067;-83
2021/06/19 01:22:37;;;;;;;6.88;1.73;;;23.50;84.80;;;;;;5030903;28;20086;-83
2021/06/19 01:25:08;;;;;;;7.80;1.80;;;23.60;84.10;;;;;;5031429;28;20034;-83
2021/06/19 01:27:34;;;;;;;8.60;2.00;;;23.70;84.60;;;;;;5033137;28;20026;-83
2021/06/19 01:30:04;;;;;;;7.90;2.33;;;23.80;84.90;;;;;;5034159;28;20370;-83
2021/06/19 01:32:34;;;;;;;5.60;1.63;;;23.70;85.10;;;;;;5017436;28;20093;-83
2021/06/19 01:35:00;;;;;;;7.53;1.77;;;23.80;85.60;;;;;;5034880;28;20474;-84
2021/06/19 01:37:27;;;;;;;9.15;1.80;;;23.70;85.90;;;;;;5034440;28;20096;-82
2021/06/19 01:40:11;;;;;;;8.50;2.00;;;23.70;86.60;;;;;;5034009;28;20111;-83
2021/06/19 01:42:41;;;;;;;6.80;1.83;;;23.70;86.60;;;;;;5035065;28;20021;-83
2021/06/19 01:45:25;;;;;;;8.07;2.30;;;23.70;86.50;;;;;;5034908;28;20041;-83
2021/06/19 01:47:51;;;;;;;6.82;2.15;;;23.70;86.40;;;;;;5005906;28;20029;-83
2021/06/19 01:50:20;;;;;;;7.47;1.60;;;23.80;86.30;;;;;;5015389;28;20038;-83
2021/06/19 01:52:46;;;;;;;6.95;1.70;;;23.80;85.80;;;;;;5013211;28;20030;-83
2021/06/19 01:55:12;;;;;;;8.05;2.33;;;23.90;87.40;;;;;;5013147;28;20045;-83
2021/06/19 01:57:38;;;;;;;5.30;1.92;;;23.60;90.20;;;;;;5030207;28;20032;-83
2021/06/19 02:00:14;;;;;;;9.38;2.00;;;23.50;90.90;;;;;;5032841;28;20048;-83
2021/06/19 02:02:40;;;;;;;10.15;2.75;;;23.40;91.50;;;;;;5016163;28;20030;-83
2021/06/19 02:05:08;;;;;;;5.30;2.25;;;23.30;92.50;;;;;;5015030;28;20164;-83
2021/06/19 02:07:44;;;;;;;8.93;2.25;;;23.10;92.60;;;;;;5014888;28;20033;-84
2021/06/19 02:10:11;;;;;;;9.55;2.55;;;23.20;93.30;;;;;;5044481;22;20045;-83
2021/06/19 02:12:37;;;;;;;4.72;2.08;;;23.10;93.40;;;;;;5077056;28;20029;-84
2021/06/19 02:15:04;;;;;;;7.50;2.50;;;23.00;94.40;;;;;;5059681;28;20040;-82
2021/06/19 02:17:30;;;;;;;7.57;2.60;;;23.00;95.00;;;;;;5068891;28;20028;-83
2021/06/19 02:19:55;;;;;;;7.70;2.20;;;23.00;96.00;;;;;;5073053;28;20095;-84
2021/06/19 02:22:21;;;;;;;6.18;2.33;;;23.10;96.30;;;;;;5072298;28;20024;-83
2021/06/19 02:24:47;;;;;;;6.38;2.35;;;23.10;96.70;;;;;;5072216;28;20027;-83
2021/06/19 02:27:14;;;;;;;8.13;2.33;;;23.10;97.20;;;;;;5074047;28;20025;-83
2021/06/19 02:29:40;;;;;;;8.32;2.33;;;22.90;97.60;;;;;;5076202;28;20024;-83
2021/06/19 02:32:08;;;;;;;7.88;3.38;;;22.80;98.20;;;;;;5074243;28;20024;-83
2021/06/19 02:34:35;;;;;;;7.07;2.60;;;22.60;98.50;;;;;;5050998;28;20014;-84
2021/06/19 02:37:01;;;;;;;7.55;2.60;;;22.40;99.90;;;;;;5052070;28;20075;-83
2021/06/19 02:39:26;;;;;;;6.97;2.75;;;22.30;99.90;;;;;;5056088;28;20017;-83
2021/06/19 02:41:52;;;;;;;8.00;2.70;;;22.20;99.90;;;;;;5057162;28;20021;-84
2021/06/19 02:44:18;;;;;;;8.15;3.33;;;22.10;99.90;;;;;;5056042;28;20488;-83
2021/06/19 02:46:43;;;;;;;9.95;2.70;;;22.10;99.90;;;;;;5039140;28;20029;-83
2021/06/19 02:49:09;;;;;;;6.25;2.53;;;22.10;99.90;;;;;;5052119;28;20478;-83
2021/06/19 02:51:36;;;;;;;7.20;2.63;;;21.80;99.90;;;;;;5060152;28;20025;-84
2021/06/19 02:54:02;;;;;;;6.47;3.05;;;21.90;99.90;;;;;;5050032;28;20048;-83
2021/06/19 02:56:27;;;;;;;6.63;2.65;;;21.90;99.90;;;;;;5057426;28;20025;-84
2021/06/19 02:58:53;;;;;;;10.63;3.15;;;21.90;99.90;;;;;;5055484;28;20112;-83
2021/06/19 03:01:19;;;;;;;7.70;2.85;;;21.80;99.90;;;;;;5038278;28;20179;-83
2021/06/19 03:03:44;;;;;;;8.40;3.08;;;21.70;99.90;;;;;;5056519;28;20112;-82
2021/06/19 03:06:10;;;;;;;8.43;2.80;;;21.60;99.90;;;;;;5056564;28;20051;-83
2021/06/19 03:08:36;;;;;;;6.65;2.60;;;21.60;99.90;;;;;;5058300;28;20053;-84
2021/06/19 03:11:02;;;;;;;8.38;3.85;;;21.70;99.90;;;;;;5038867;28;20037;-83
2021/06/19 03:13:27;;;;;;;7.40;2.85;;;21.70;99.90;;;;;;5039054;28;20063;-83
2021/06/19 03:15:54;;;;;;;5.40;2.55;;;21.80;99.90;;;;;;5056923;28;20025;-84
2021/06/19 03:18:19;;;;;;;7.15;3.03;;;21.80;99.90;;;;;;5046573;28;20036;-83
2021/06/19 03:20:45;;;;;;;7.47;2.83;;;21.70;99.90;;;;;;5052223;28;20022;-83
2021/06/19 03:23:11;;;;;;;7.60;3.03;;;21.80;99.90;;;;;;5037114;28;20040;-83
2021/06/19 03:25:43;;;;;;;10.70;3.13;;;21.80;99.90;;;;;;5064694;28;20486;-84
2021/06/19 03:28:10;;;;;;;10.40;2.88;;;21.80;99.90;;;;;;5056821;28;20405;-83
2021/06/19 03:30:37;;;;;;;6.82;3.00;;;21.80;99.90;;;;;;5056430;28;20546;-83
2021/06/19 03:33:04;;;;;;;10.68;3.15;;;21.80;99.90;;;;;;5052600;28;20501;-83
2021/06/19 03:35:30;;;;;;;11.23;3.33;;;21.90;99.90;;;;;;5036370;28;20032;-83
2021/06/19 03:37:58;;;;;;;9.75;2.83;;;22.00;99.90;;;;;;5036717;28;20025;-83
2021/06/19 03:40:28;;;;;;;8.27;3.45;;;22.00;99.90;;;;;;5036754;28;20160;-83
2021/06/19 03:42:54;;;;;;;8.60;3.00;;;22.10;99.90;;;;;;5045509;28;20081;-84
2021/06/19 03:45:22;;;;;;;11.52;3.28;;;22.00;99.90;;;;;;5055965;28;20029;-83
2021/06/19 03:47:48;;;;;;;8.52;3.35;;;21.90;99.90;;;;;;5056163;28;20029;-83
2021/06/19 03:50:19;;;;;;;7.65;3.05;;;21.80;99.90;;;;;;5054349;28;20481;-82
2021/06/19 03:52:45;;;;;;;5.60;3.05;;;21.80;99.90;;;;;;5037696;28;20486;-83
2021/06/19 03:55:12;;;;;;;6.60;3.10;;;21.70;99.90;;;;;;5055486;28;20112;-83
2021/06/19 03:57:37;;;;;;;8.73;3.17;;;21.70;99.90;;;;;;5054716;28;20094;-83
2021/06/19 04:00:09;;;;;;;9.73;3.40;;;21.80;99.90;;;;;;5053283;28;20477;-83
2021/06/19 04:02:35;;;;;;;9.00;3.33;;;21.70;99.90;;;;;;5035732;28;20121;-83
2021/06/19 04:05:00;;;;;;;7.75;3.30;;;21.80;99.90;;;;;;5053574;28;20078;-83
2021/06/19 04:07:26;;;;;;;9.50;3.50;;;21.80;99.90;;;;;;5053966;28;20032;-83
2021/06/19 04:09:53;;;;;;;7.78;3.10;;;21.90;99.90;;;;;;5046953;28;20418;-83
2021/06/19 04:12:21;;;;;;;7.18;3.50;;;22.00;99.90;;;;;;5033820;28;20052;-83
2021/06/19 04:14:48;;;;;;;7.85;3.40;;;21.90;99.90;;;;;;5048890;28;20428;-83
2021/06/19 04:17:14;;;;;;;7.35;3.72;;;21.90;99.90;;;;;;5055675;28;20426;-83
2021/06/19 04:19:41;;;;;;;9.57;4.05;;;21.80;99.90;;;;;;5044582;28;20408;-83
2021/06/19 04:22:07;;;;;;;10.68;3.67;;;21.80;99.90;;;;;;5036211;28;20044;-82
2021/06/19 04:24:36;;;;;;;9.25;4.07;;;21.70;99.90;;;;;;5055999;28;20020;-83
2021/06/19 04:27:03;;;;;;;10.50;3.60;;;21.80;99.90;;;;;;5053991;28;20029;-83
2021/06/19 04:29:30;;;;;;;9.38;3.75;;;21.80;99.90;;;;;;5040572;28;20079;-83
2021/06/19 04:31:56;;;;;;;9.40;4.00;;;21.90;99.90;;;;;;5035560;28;20026;-83
2021/06/19 04:34:23;;;;;;;7.03;3.95;;;22.00;99.90;;;;;;5034627;28;20051;-83
2021/06/19 04:36:49;;;;;;;13.38;3.60;;;22.00;99.90;;;;;;5034840;28;20075;-83
2021/06/19 04:39:15;;;;;;;7.45;3.53;;;22.10;99.90;;;;;;5033239;28;20124;-83
2021/06/19 04:42:04;;;;;;;10.13;3.72;;;22.10;99.90;;;;;;5035178;28;20049;-83
2021/06/19 04:45:11;;;;;;;8.65;3.70;;;22.20;99.90;;;;;;5049083;28;20030;-83
2021/06/19 04:47:18;;;;;;;8.93;3.40;;;22.40;99.90;;;;;;5026512;28;20041;-83
2021/06/19 04:49:43;;;;;;;8.63;3.85;;;22.50;99.90;;;;;;5033131;28;20037;-83
2021/06/19 04:52:09;;;;;;;8.27;3.13;;;22.60;99.90;;;;;;5051021;28;20055;-83
2021/06/19 04:54:38;;;;;;;8.70;3.35;;;22.70;99.90;;;;;;5034951;28;20203;-83
2021/06/19 04:57:08;;;;;;;8.73;3.30;;;22.60;99.90;;;;;;5035907;28;20022;-83
2021/06/19 04:59:34;;;;;;;12.15;4.10;;;22.60;99.90;;;;;;5050112;28;20029;-82
2021/06/19 05:02:01;;;;;;;8.63;3.70;;;22.60;99.90;;;;;;5049904;28;20075;-82
2021/06/19 05:04:27;;;;;;;11.10;3.60;;;22.80;99.90;;;;;;5039624;28;20028;-82
2021/06/19 05:06:52;;;;;;;8.85;4.38;;;22.80;99.90;;;;;;5057918;28;20021;-83
2021/06/19 05:09:18;;;;;;;9.70;3.72;;;22.70;99.90;;;;;;5059391;28;20329;-82
2021/06/19 05:11:44;;;;;;;8.25;4.03;;;22.70;99.90;;;;;;5048449;28;20025;-83
2021/06/19 05:14:09;;;;;;;9.70;3.72;;;22.70;99.90;;;;;;5038793;28;20038;-83
2021/06/19 05:16:35;;;;;;;7.40;3.53;;;22.80;99.90;;;;;;5039232;28;20032;-83
2021/06/19 05:19:01;;;;;;;9.43;3.90;;;22.80;99.90;;;;;;5038204;28;20075;-83
2021/06/19 05:21:27;;;;;;;9.52;3.45;;;22.90;99.90;;;;;;5038785;28;20025;-83
2021/06/19 05:23:52;;;;;;;9.60;3.80;;;22.90;99.90;;;;;;5051460;28;20115;-83
2021/06/19 05:26:18;;;;;;;8.77;3.45;;;23.10;99.90;;;;;;5071868;28;20025;-83
2021/06/19 05:28:44;;;;;;;12.25;3.78;;;23.10;99.90;;;;;;5059052;28;20055;-83
2021/06/19 05:31:09;;;;;;;12.65;3.90;;;23.30;99.90;;;;;;5056995;28;20469;-83
2021/06/19 05:33:35;;;;;;;7.72;4.10;;;23.50;99.90;;;;;;5049313;28;20030;-82
2021/06/19 05:36:01;;;;;;;9.20;3.80;;;23.60;99.90;;;;;;5036984;28;20017;-83
2021/06/19 05:38:26;;;;;;;8.60;3.47;;;23.70;99.90;;;;;;5037248;28;20017;-82
2021/06/19 05:40:52;;;;;;;7.13;3.70;;;23.70;99.90;;;;;;5037434;28;20056;-83
2021/06/19 05:43:17;;;;;;;9.65;4.00;;;23.70;99.90;;;;;;5037066;28;20478;-81
2021/06/19 05:45:43;;;;;;;11.32;3.97;;;23.60;99.90;;;;;;5038807;28;20489;-83
2021/06/19 05:48:09;;;;;;;9.45;4.07;;;23.40;99.90;;;;;;5050110;28;20021;-83
2021/06/19 05:50:34;;;;;;;7.97;3.88;;;23.60;99.90;;;;;;5054769;28;20025;-83
2021/06/19 05:53:00;;;;;;;10.45;4.07;;;23.70;99.90;;;;;;5057682;28;20102;-82
2021/06/19 05:55:26;;;;;;;9.93;3.50;;;23.80;99.90;;;;;;5059014;28;20482;-82
2021/06/19 05:57:51;;;;;;;8.30;4.13;;;24.00;99.90;;;;;;5058493;28;20104;-83
2021/06/19 06:00:17;;;;;;;8.07;3.58;;;23.80;99.90;;;;;;5054977;28;20095;-82
2021/06/19 06:02:44;;;;;;;11.60;3.60;;;23.90;99.90;;;;;;5037393;28;20489;-82
2021/06/19 06:05:11;;;;;;;11.35;4.18;;;23.80;99.90;;;;;;5038412;28;20135;-82
2021/06/19 06:07:37;;;;;;;10.27;4.32;;;23.80;99.90;;;;;;5038230;28;20044;-83
2021/06/19 06:10:04;;;;;;;8.73;3.90;;;24.00;99.90;;;;;;5056148;28;20033;-83
2021/06/19 06:12:30;;;;;;;9.63;4.22;;;24.20;99.90;;;;;;5057097;28;20029;-83
2021/06/19 06:14:56;;;;;;;10.48;4.10;;;24.40;99.90;;;;;;5058132;28;20036;-81
2021/06/19 06:17:22;;;;;;;9.77;3.80;;;24.50;99.90;;;;;;5038821;28;20021;-83
2021/06/19 06:19:47;;;;;;;9.18;3.85;;;24.60;99.90;;;;;;5039038;28;20481;-82
2021/06/19 06:22:13;;;;;;;11.40;3.45;;;24.80;99.90;;;;;;5037471;28;20051;-84
2021/06/19 06:24:39;;;;;;;7.97;3.72;;;24.90;99.90;;;;;;5041982;28;20037;-83
2021/06/19 06:27:05;;;;;;;7.40;3.22;;;25.10;99.90;;;;;;5037244;28;20056;-83
2021/06/19 06:29:31;;;;;;;8.77;4.15;;;25.20;99.90;;;;;;5043943;28;20021;-83
2021/06/19 06:31:57;;;;;;;7.93;3.30;;;25.30;99.90;;;;;;5055987;28;20369;-83
2021/06/19 06:34:26;;;;;;;5.60;3.50;;;25.40;99.90;;;;;;5039864;28;20026;-83
2021/06/19 06:36:53;;;;;;;7.90;3.88;;;25.50;99.90;;;;;;5039528;28;20018;-83
2021/06/19 06:39:19;;;;;;;9.32;4.07;;;25.60;99.90;;;;;;5054248;28;20111;-84
2021/06/19 06:41:45;;;;;;;8.65;3.67;;;25.70;99.90;;;;;;5053472;28;20029;-83
2021/06/19 06:44:10;;;;;;;9.18;3.53;;;25.70;99.90;;;;;;5037495;28;20513;-84
2021/06/19 06:46:36;;;;;;;11.85;3.78;;;25.60;99.90;;;;;;5055935;28;20095;-82
2021/06/19 06:49:02;;;;;;;5.38;3.17;;;25.90;99.90;;;;;;5068077;28;20679;-83
2021/06/19 06:51:28;;;;;;;8.35;3.20;;;25.70;99.70;;;;;;5063234;28;20115;-83
2021/06/19 06:53:54;;;;;;;5.22;3.10;;;25.80;99.70;;;;;;5056216;28;20064;-84
2021/06/19 06:56:20;;;;;;;7.57;3.20;;;26.10;99.30;;;;;;5042207;28;20029;-84
2021/06/19 06:58:45;;;;;;;6.90;2.90;;;26.00;99.50;;;;;;5041802;28;20020;-83
2021/06/19 07:01:11;;;;;;;10.25;3.13;;;26.20;98.50;;;;;;5041568;28;20047;-82
2021/06/19 07:03:37;;;;;;;5.55;2.85;;;26.30;98.00;;;;;;5064163;28;20026;-88
2021/06/19 07:06:02;;;;;;;5.88;2.80;;;26.40;97.00;;;;;;5060849;28;20082;-83
2021/06/19 07:08:28;;;;;;;10.02;3.10;;;26.40;97.30;;;;;;5071533;28;20021;-84
2021/06/19 07:10:54;;;;;;;8.27;2.55;;;26.60;97.40;;;;;;5056976;28;20041;-83
2021/06/19 07:13:19;;;;;;;5.63;2.63;;;26.70;97.30;;;;;;5058530;28;20083;-83
2021/06/19 07:15:45;;;;;;;6.10;3.03;;;26.60;96.50;;;;;;5058327;28;20147;-84
2021/06/19 07:18:14;;;;;;;7.00;2.90;;;26.80;96.30;;;;;;5050457;28;20030;-84
2021/06/19 07:20:39;;;;;;;7.45;3.05;;;26.90;95.80;;;;;;5041330;28;20021;-83
2021/06/19 07:23:05;;;;;;;5.38;2.80;;;27.00;95.90;;;;;;5060318;28;20043;-83
2021/06/19 07:25:31;;;;;;;7.97;2.38;;;27.20;95.40;;;;;;5055239;28;20098;-84
2021/06/19 07:27:58;;;;;;;9.80;2.55;;;27.20;94.90;;;;;;5052642;28;20380;-84
2021/06/19 07:30:26;;;;;;;6.47;2.80;;;27.30;94.70;;;;;;5053306;28;20017;-83
2021/06/19 07:32:55;;;;;;;5.80;2.75;;;27.40;94.70;;;;;;5052333;28;20025;-84
2021/06/19 07:35:22;;;;;;;6.43;2.97;;;27.40;94.70;;;;;;5051261;28;20029;-84
2021/06/19 07:37:48;;;;;;;10.00;3.15;;;27.50;94.60;;;;;;5044367;28;20108;-84
2021/06/19 07:40:14;;;;;;;6.50;2.58;;;27.50;94.60;;;;;;5044851;28;20060;-83
2021/06/19 07:42:40;;;;;;;7.13;3.10;;;27.50;94.50;;;;;;5052193;28;20059;-84
2021/06/19 07:45:09;;;;;;;5.38;2.97;;;27.40;94.30;;;;;;5056244;28;20041;-83
2021/06/19 07:47:36;;;;;;;6.07;2.67;;;27.30;94.80;;;;;;5052812;28;20033;-84
2021/06/19 07:50:03;;;;;;;8.38;2.90;;;27.40;94.90;;;;;;5055366;28;20106;-83
2021/06/19 07:52:28;;;;;;;6.15;2.80;;;27.40;94.60;;;;;;5052344;28;20500;-84
2021/06/19 07:54:54;;;;;;;7.82;3.50;;;27.70;94.70;;;;;;5054427;28;20033;-84
2021/06/19 07:57:20;;;;;;;5.10;2.90;;;27.80;94.40;;;;;;5057785;28;20028;-84
2021/06/19 07:59:45;;;;;;;8.43;3.08;;;27.90;94.20;;;;;;5059079;28;20021;-84
2021/06/19 08:02:11;;;;;;;5.97;3.00;;;28.10;94.40;;;;;;5055183;28;20035;-84
2021/06/19 08:04:37;;;;;;;6.88;3.35;;;28.30;94.10;;;;;;5048273;28;20036;-84
2021/06/19 08:07:04;;;;;;;6.43;2.92;;;28.10;93.40;;;;;;5046007;28;20034;-84
2021/06/19 08:09:29;;;;;;;6.65;3.20;;;28.10;93.40;;;;;;5034377;28;20047;-84
2021/06/19 08:11:56;;;;;;;6.38;3.53;;;28.20;93.30;;;;;;5045483;28;20020;-85
2021/06/19 08:14:22;;;;;;;5.43;3.00;;;28.50;93.60;;;;;;5063691;22;20040;-83
2021/06/19 08:16:56;;;;;;;5.88;3.30;;;28.50;93.80;;;;;;5037144;28;20100;-81
2021/06/19 08:19:23;;;;;;;6.90;3.22;;;28.60;93.60;;;;;;5043729;28;20032;-82
2021/06/19 08:21:49;;;;;;;14.27;4.05;;;28.40;93.80;;;;;;5031546;28;20021;-83
2021/06/19 08:24:15;;;;;;;8.20;3.88;;;28.50;94.10;;;;;;5030596;28;20056;-82
2021/06/19 08:26:41;;;;;;;7.82;4.00;;;28.70;94.80;;;;;;5030997;28;20033;-84
2021/06/19 08:29:07;;;;;;;8.52;4.32;;;28.70;95.00;;;;;;5042151;28;20029;-85
2021/06/19 08:31:38;;;;;;;10.63;5.25;;;28.80;94.40;;;;;;5028931;28;20033;-83
2021/06/19 08:34:05;;;;;;;7.65;3.70;;;28.80;94.20;;;;;;5015991;28;20025;-83
2021/06/19 08:36:31;;;;;;;7.35;3.70;;;28.90;94.50;;;;;;5033103;28;20025;-83
2021/06/19 08:38:57;;;;;;;7.57;3.70;;;29.10;94.40;;;;;;5050394;28;20029;-83
2021/06/19 08:41:23;;;;;;;6.38;3.78;;;29.30;94.10;;;;;;5051126;28;20020;-83
2021/06/19 08:43:49;;;;;;;9.45;4.00;;;29.40;93.80;;;;;;5031307;28;20116;-83
2021/06/19 08:46:19;;;;;;;7.30;3.90;;;29.50;93.70;;;;;;5049601;28;20096;-82
2021/06/19 08:48:47;;;;;;;8.27;3.40;;;29.70;93.60;;;;;;5023095;28;20033;-84
2021/06/19 08:51:12;;;;;;;8.15;2.97;;;29.80;93.40;;;;;;5048365;28;20564;-83
2021/06/19 08:53:38;;;;;;;9.25;3.92;;;30.00;92.20;;;;;;5046649;28;20052;-82
2021/06/19 08:56:04;;;;;;;7.35;3.65;;;30.10;92.50;;;;;;5033970;28;20064;-82
2021/06/19 08:58:30;;;;;;;7.45;3.80;;;30.30;91.80;;;;;;5048658;28;20087;-83
2021/06/19 09:00:56;;;;;;;9.00;3.53;;;30.30;91.70;;;;;;5048932;28;20091;-83
2021/06/19 09:03:24;;;;;;;6.85;3.05;;;30.40;91.90;;;;;;5034282;28;20028;-84
2021/06/19 09:05:52;;;;;;;6.13;3.63;;;30.40;91.40;;;;;;5054154;28;20021;-84
2021/06/19 09:08:19;;;;;;;6.60;3.53;;;30.50;91.60;;;;;;5056525;28;20615;-84
2021/06/19 09:10:45;;;;;;;5.88;3.50;;;30.70;90.80;;;;;;5038231;28;20393;-85
2021/06/19 09:13:12;;;;;;;9.82;3.55;;;30.80;91.30;;;;;;5045586;28;20032;-83
2021/06/19 09:15:39;;;;;;;7.13;3.33;;;30.90;90.50;;;;;;5035642;28;20102;-85
2021/06/19 09:18:12;;;;;;;5.80;2.95;;;31.00;89.70;;;;;;5051897;28;20036;-83
2021/06/19 09:20:50;;;;;;;6.95;3.60;;;31.20;90.00;;;;;;5032478;28;20096;-84
2021/06/19 09:23:18;;;;;;;8.07;3.70;;;31.30;89.10;;;;;;5028946;28;20029;-82
2021/06/19 09:25:45;;;;;;;7.25;3.28;;;31.40;88.90;;;;;;5032898;28;20381;-85
2021/06/19 09:28:13;;;;;;;7.03;3.25;;;31.60;87.40;;;;;;5052263;28;20045;-83
2021/06/19 09:30:39;;;;;;;10.05;3.10;;;31.60;88.20;;;;;;5033527;28;20021;-86
2021/06/19 09:33:07;;;;;;;8.60;3.58;;;31.50;85.20;;;;;;5030761;28;20021;-82
2021/06/19 09:35:36;;;;;;;6.85;3.60;;;31.30;85.70;;;;;;5056169;28;20052;-84
2021/06/19 09:38:05;;;;;;;6.28;2.83;;;31.10;86.30;;;;;;5054696;28;20104;-85
2021/06/19 09:40:38;;;;;;;8.82;3.47;;;31.20;87.70;;;;;;5028841;28;20092;-84
2021/06/19 09:43:18;;;;;;;6.82;3.10;;;31.40;86.60;;;;;;5031493;28;20029;-84
2021/06/19 09:46:01;;;;;;;8.93;3.38;;;31.50;86.00;;;;;;5049488;28;20370;-82
2021/06/19 09:48:32;;;;;;;8.18;3.38;;;31.60;84.70;;;;;;5039145;28;20041;-83
2021/06/19 09:51:21;;;;;;;7.72;3.10;;;31.80;83.70;;;;;;5044191;28;20039;-84
2021/06/19 09:54:08;;;;;;;7.28;3.28;;;32.00;83.90;;;;;;5057438;28;20043;-83
2021/06/19 09:57:00;;;;;;;7.38;3.40;;;32.20;83.00;;;;;;5039628;28;20060;-83
2021/06/19 09:59:26;;;;;;;6.07;3.22;;;32.20;82.20;;;;;;5052573;28;20037;-83
2021/06/19 10:01:53;;;;;;;7.88;3.45;;;32.50;82.60;;;;;;5059820;28;20027;-82
2021/06/19 10:04:21;;;;;;;7.88;3.15;;;32.70;82.30;;;;;;5068951;28;20047;-82
2021/06/19 10:06:47;;;;;;;8.00;3.58;;;32.70;81.20;;;;;;5053687;28;20021;-82
2021/06/19 10:09:16;;;;;;;8.85;3.30;;;32.30;81.20;;;;;;5073606;28;20005;-86
2021/06/19 10:11:45;;;;;;;6.70;3.67;;;32.40;81.60;;;;;;5040428;28;20047;-85
2021/06/19 10:14:16;;;;;;;7.28;4.05;;;32.60;81.70;;;;;;5061376;28;20555;-83
2021/06/19 10:16:43;;;;;;;7.00;3.92;;;32.70;81.40;;;;;;5040611;28;20036;-83
2021/06/19 10:19:09;;;;;;;6.25;3.15;;;33.00;80.40;;;;;;5038086;28;20013;-84
2021/06/19 10:21:35;;;;;;;6.47;3.20;;;33.00;78.60;;;;;;5039385;28;20043;-83
2021/06/19 10:24:00;;;;;;;8.68;3.65;;;33.10;78.80;;;;;;5043848;28;20037;-82
2021/06/19 10:26:26;;;;;;;9.32;3.28;;;33.00;78.80;;;;;;5032656;28;20051;-80
2021/06/19 10:28:56;;;;;;;9.02;3.45;;;33.20;77.30;;;;;;5039899;28;20024;-85
2021/06/19 10:31:23;;;;;;;6.28;3.10;;;33.30;77.30;;;;;;5066830;28;20042;-85
2021/06/19 10:33:50;;;;;;;5.90;2.83;;;33.20;74.90;;;;;;5050000;28;20032;-84
2021/06/19 10:36:16;;;;;;;5.65;2.95;;;33.20;76.20;;;;;;5070693;28;20032;-85
2021/06/19 10:39:08;;;;;;;5.70;2.90;;;33.30;74.70;;;;;;5045962;28;20025;-84
2021/06/19 10:41:44;;;;;;;6.70;3.22;;;33.60;74.70;;;;;;5038735;28;20041;-84
2021/06/19 10:44:10;;;;;;;5.28;2.85;;;33.50;72.70;;;;;;5058826;28;20025;-85
2021/06/19 10:46:38;;;;;;;7.43;2.67;;;33.60;72.40;;;;;;5048716;28;20166;-86
2021/06/19 10:49:24;;;;;;;8.93;2.50;;;33.50;72.00;;;;;;5062517;28;20108;-84
2021/06/19 10:52:09;;;;;;;5.45;2.58;;;33.70;71.70;;;;;;5041547;28;20398;-83
2021/06/19 10:54:35;;;;;;;6.80;2.85;;;33.80;69.70;;;;;;5035941;28;20029;-82
2021/06/19 10:57:01;;;;;;;7.32;3.08;;;33.90;70.60;;;;;;5057393;28;21025;-84
2021/06/19 10:59:32;;;;;;;7.15;2.47;;;33.80;70.10;;;;;;5043455;28;20020;-84
2021/06/19 11:02:00;;;;;;;7.78;2.50;;;34.00;69.80;;;;;;5052655;28;20515;-84
2021/06/19 11:04:35;;;;;;;8.95;2.67;;;34.00;68.20;;;;;;5077134;28;20072;-84
2021/06/19 11:07:02;;;;;;;5.63;2.67;;;34.10;69.10;;;;;;5044009;28;20045;-84
2021/06/19 11:09:41;;;;;;;8.15;2.80;;;34.10;69.20;;;;;;5046671;28;20033;-82
2021/06/19 11:12:22;;;;;;;7.10;2.55;;;34.00;69.30;;;;;;5060312;28;20075;-81
2021/06/19 11:15:05;;;;;;;8.63;2.58;;;34.30;66.80;;;;;;5039034;28;20029;-81
2021/06/19 11:17:31;;;;;;;7.93;2.92;;;34.30;67.70;;;;;;5057612;28;20491;-81
2021/06/19 11:20:09;;;;;;;8.80;2.47;;;34.60;68.50;;;;;;5059724;28;20104;-81
2021/06/19 11:22:42;;;;;;;4.97;2.67;;;34.80;64.90;;;;;;5038714;28;20115;-82
2021/06/19 11:25:50;;;;;;;6.22;2.80;;;34.80;65.30;;;;;;5040319;28;20051;-84
2021/06/19 11:28:21;;;;;;;7.55;3.17;;;35.00;66.50;;;;;;5034716;28;20025;-81
2021/06/19 11:30:51;;;;;;;5.32;2.90;;;34.90;64.80;;;;;;5036630;28;20094;-83
2021/06/19 11:33:20;;;;;;;7.13;3.00;;;35.20;64.30;;;;;;5055668;28;21691;-80
2021/06/19 11:35:48;;;;;;;4.68;2.25;;;35.30;63.70;;;;;;5033214;28;20044;-82
2021/06/19 11:38:16;;;;;;;5.05;2.38;;;35.10;61.80;;;;;;5052620;28;20091;-82
2021/06/19 11:40:43;;;;;;;8.88;2.80;;;35.00;62.60;;;;;;5035504;28;20149;-82
2021/06/19 11:43:10;;;;;;;4.25;2.22;;;35.20;62.80;;;;;;5051520;28;20036;-81
2021/06/19 11:45:39;;;;;;;9.85;2.40;;;35.10;62.00;;;;;;5034613;28;20063;-84
2021/06/19 11:48:07;;;;;;;5.75;2.15;;;35.10;59.90;;;;;;5049719;28;20040;-85
2021/06/19 11:50:35;;;;;;;5.70;1.95;;;35.30;58.60;;;;;;5041847;28;20087;-81
2021/06/19 11:53:27;;;;;;;6.78;2.00;;;35.40;57.40;;;;;;5043586;28;20032;-84
2021/06/19 11:56:16;;;;;;;6.43;2.13;;;35.60;57.20;;;;;;5037076;28;20112;-84
2021/06/19 11:58:58;;;;;;;9.15;2.28;;;35.60;57.00;;;;;;5058361;28;20106;-80
2021/06/19 12:01:25;;;;;;;8.45;2.17;;;35.50;57.50;;;;;;5056511;28;20547;-85
2021/06/19 12:03:52;;;;;;;6.38;1.88;;;35.80;56.70;;;;;;5041891;28;20498;-85
2021/06/19 12:06:28;;;;;;;5.07;1.83;;;36.00;56.70;;;;;;5042293;28;20135;-83
2021/06/19 12:08:54;;;;;;;8.18;1.88;;;36.10;55.40;;;;;;5036499;28;20139;-85
2021/06/19 12:11:30;;;;;;;4.65;1.80;;;36.30;54.80;;;;;;5061625;28;20025;-84
2021/06/19 12:13:56;;;;;;;6.30;2.22;;;36.10;53.20;;;;;;5059206;28;20028;-85
2021/06/19 12:16:33;;;;;;;7.35;2.03;;;36.00;53.60;;;;;;5037218;28;20079;-82
2021/06/19 12:19:03;;;;;;;7.07;1.90;;;36.10;53.40;;;;;;5059731;28;20078;-85
2021/06/19 12:21:33;;;;;;;;;;;36.20;53.90;;;;;;5039880;28;20021;-86
2021/06/19 12:24:00;;;;;;;5.93;1.80;;;36.40;53.50;;;;;;5039487;28;19916;-85
2021/06/19 12:26:26;;;;;;;8.32;1.67;;;36.60;51.80;;;;;;5038426;28;20271;-83
2021/06/19 12:28:52;;;;;;;5.35;1.83;;;36.70;50.30;;;;;;5041158;28;20507;-83
2021/06/19 12:31:24;;;;;;;4.75;1.98;;;36.90;49.10;;;;;;5052638;28;20029;-84
2021/06/19 12:34:03;;;;;;;6.88;1.70;;;37.00;49.30;;;;;;5038044;28;20553;-82
2021/06/19 12:36:30;;;;;;;10.05;1.90;;;36.90;48.50;;;;;;5033734;28;20049;-83
2021/06/19 12:38:56;;;;;;;7.78;2.17;;;37.10;50.30;;;;;;5031172;28;20049;-84
2021/06/19 12:41:25;;;;;;;6.65;2.10;;;37.20;50.90;;;;;;5057222;28;20021;-85
2021/06/19 12:43:53;;;;;;;7.28;2.22;;;37.30;51.30;;;;;;5052090;28;20051;-84
2021/06/19 12:46:21;;;;;;;7.75;2.25;;;37.00;51.10;;;;;;5037630;28;20059;-82
2021/06/19 12:48:47;;;;;;;4.43;1.70;;;36.80;50.80;;;;;;5031531;28;20033;-80
2021/06/19 12:51:26;;;;;;;5.93;1.70;;;36.90;50.50;;;;;;5052758;28;20032;-81